KBVX

Batesville Regional Airport

Batesville, Arkansas, USA
METAR KBVX 232156Z AUTO 00000KT 10SM -RA BKN009 OVC070 10/09 A3024 RMK AO2 CIG 007V012 SLP242 P0000 T01000094
Observed Flight Rules
Feb-23 @ 21:56 UTC (35 minutes ago) Instrument Flight Rules
Wind Visibility Clouds Conditions
Calm 10 miles
  • Broken at 900' AGL
  • Overcast at 7,000' AGL
  • Light Rain
Temperatures Readings Precipitation
Current 10°C / 50°F
Dewpoint 9°C / 48°F
Humidity 94%
Altimeter 30.24" Hg
Pressure 1024.2 hPa
Elevation 141
Current Rain 0.005
METAR KBVX 232156Z AUTO 00000KT 10SM -RA BKN009 OVC070 10/09 A3024 RMK AO2 CIG 007V012 SLP242 P0000 T01000094
Observed Flight Rules
Feb-23 @ 21:56 UTC
(35 minutes ago)
IFR
Wind Visibility
Calm 10 miles
Clouds
  • Broken at 900' AGL
  • Overcast at 7,000' AGL
Conditions
  • Light Rain
Temperature Dewpoint
10°C / 50°F 9°C / 48°F
Humidity Altimeter Pressure
94% 30.24" Hg 1024.2 hPa
Current Rain
0.005